createdAt,value
2022-10-28T00:03:23.478Z,71.90
2022-10-28T00:08:26.990Z,72.00
2022-10-28T00:13:30.564Z,72.20
2022-10-28T00:18:35.481Z,72.20
2022-10-28T00:23:39.140Z,72.30
2022-10-28T00:28:44.133Z,71.90
2022-10-28T00:33:49.041Z,71.70
2022-10-28T00:38:54.393Z,71.50
2022-10-28T00:43:59.927Z,72.30
2022-10-28T00:49:07.582Z,71.60
2022-10-28T00:54:12.334Z,72.30
2022-10-28T00:59:19.993Z,72.40
2022-10-28T01:04:25.041Z,72.30
2022-10-28T01:09:28.394Z,72.30
2022-10-28T01:14:47.812Z,72.30
2022-10-28T01:20:36.215Z,72.20
2022-10-28T01:26:16.857Z,72.00
2022-10-28T01:31:39.930Z,72.30
2022-10-28T01:36:55.888Z,72.40
2022-10-28T01:42:05.061Z,72.40
2022-10-28T01:47:14.055Z,73.40
2022-10-28T01:52:22.301Z,72.50
2022-10-28T01:57:29.102Z,72.30
2022-10-28T02:02:37.196Z,72.20
2022-10-28T02:07:40.657Z,72.30
2022-10-28T02:12:48.950Z,72.40
2022-10-28T02:18:07.685Z,72.70
2022-10-28T02:23:21.605Z,72.90
2022-10-28T02:28:33.510Z,72.90
2022-10-28T02:33:41.900Z,72.70
2022-10-28T02:38:48.960Z,73.10
2022-10-28T02:44:00.360Z,72.90
2022-10-28T02:49:09.067Z,73.80
2022-10-28T02:54:15.486Z,72.50
2022-10-28T02:59:18.826Z,72.30
2022-10-28T03:04:23.658Z,72.40
2022-10-28T03:09:27.258Z,72.70
2022-10-28T03:14:30.527Z,73.10
2022-10-28T03:19:35.334Z,73.10
2022-10-28T03:24:38.874Z,73.10
2022-10-28T03:29:45.695Z,73.40
2022-10-28T03:34:50.958Z,73.60
2022-10-28T03:39:54.385Z,73.50
2022-10-28T03:44:57.864Z,73.80
2022-10-28T03:50:02.890Z,73.60
2022-10-28T03:55:06.978Z,73.60
2022-10-28T04:00:11.374Z,73.60
2022-10-28T04:05:16.353Z,73.50
2022-10-28T04:10:19.674Z,73.50
2022-10-28T04:15:23.182Z,73.70
2022-10-28T04:20:28.372Z,73.80
2022-10-28T04:25:31.668Z,73.80
2022-10-28T04:30:35.132Z,73.90
2022-10-28T04:35:42.862Z,73.80
2022-10-28T04:40:48.376Z,73.70
2022-10-28T04:45:51.639Z,73.60
2022-10-28T04:50:58.622Z,73.60
2022-10-28T04:56:02.461Z,73.80
2022-10-28T05:01:09.354Z,73.90
2022-10-28T05:06:14.416Z,74.00
2022-10-28T05:11:17.871Z,74.10
2022-10-28T05:16:21.233Z,74.10
2022-10-28T05:21:26.076Z,74.40
2022-10-28T05:26:29.644Z,74.40
2022-10-28T05:31:33.408Z,74.70
2022-10-28T05:36:38.635Z,75.10
2022-10-28T05:41:41.986Z,75.20
2022-10-28T05:46:45.331Z,75.10
2022-10-28T05:51:50.881Z,75.10
2022-10-28T05:56:54.497Z,75.20
2022-10-28T06:01:58.160Z,75.10
2022-10-28T06:07:02.983Z,74.80
2022-10-28T06:12:06.863Z,74.90
2022-10-28T06:17:10.480Z,74.90
2022-10-28T06:22:15.135Z,74.90
2022-10-28T06:27:19.119Z,74.80
2022-10-28T06:32:22.685Z,74.70
2022-10-28T06:37:27.378Z,74.80
2022-10-28T06:42:30.728Z,74.70
2022-10-28T06:47:39.068Z,75.10
2022-10-28T06:57:55.345Z,75.70
2022-10-28T07:03:00.239Z,75.50
2022-10-28T07:08:05.740Z,75.40
2022-10-28T07:13:09.259Z,75.50
2022-10-28T07:18:13.038Z,75.50
2022-10-28T07:23:17.918Z,75.40
2022-10-28T07:28:21.611Z,75.40
2022-10-28T07:33:24.919Z,75.30
2022-10-28T07:38:32.147Z,75.30
2022-10-28T08:39:05.728Z,80.50
2022-10-28T08:44:50.975Z,79.90
2022-10-28T08:49:58.521Z,78.60
2022-10-28T08:55:07.550Z,78.00
2022-10-28T09:00:21.218Z,78.40
2022-10-28T09:05:26.194Z,78.20
2022-10-28T09:10:57.960Z,78.40
2022-10-28T09:16:08.567Z,78.20
2022-10-28T09:21:19.479Z,78.00
2022-10-28T09:26:41.641Z,78.20
2022-10-28T09:31:49.348Z,77.90
2022-10-28T09:37:16.171Z,77.70
2022-10-28T09:42:28.894Z,78.50
2022-10-28T09:47:36.958Z,77.40
2022-10-28T09:52:51.006Z,77.30
2022-10-28T09:58:14.973Z,76.90
2022-10-28T10:03:18.975Z,76.50
2022-10-28T10:08:23.779Z,76.00
2022-10-28T10:13:30.561Z,75.80
2022-10-28T10:18:34.301Z,75.50
2022-10-28T10:28:47.791Z,75.30
2022-10-28T10:33:52.982Z,75.20
2022-10-28T10:38:57.801Z,74.80
2022-10-28T10:44:02.976Z,74.30
2022-10-28T10:49:24.829Z,73.60
2022-10-28T10:54:57.633Z,73.00
2022-10-28T11:00:23.955Z,72.90
2022-10-28T11:05:35.618Z,72.50
2022-10-28T11:11:14.666Z,72.10
2022-10-28T11:16:21.945Z,71.30
2022-10-28T11:21:47.910Z,70.70
2022-10-28T11:27:01.348Z,69.90
2022-10-28T11:32:45.166Z,68.70
2022-10-28T11:38:16.555Z,68.30
2022-10-28T11:43:29.171Z,69.10
2022-10-28T11:48:46.190Z,67.00
2022-10-28T11:54:02.871Z,67.00
2022-10-28T11:59:35.992Z,66.50
2022-10-28T12:04:51.716Z,65.50
2022-10-28T12:10:11.321Z,64.90
2022-10-28T12:15:22.972Z,64.50
2022-10-28T12:20:32.992Z,63.40
2022-10-28T12:25:41.636Z,62.20
2022-10-28T12:30:47.337Z,60.00
2022-10-28T12:35:57.900Z,58.70
2022-10-28T12:41:08.093Z,59.20
2022-10-28T12:46:21.420Z,58.80
2022-10-28T12:51:31.863Z,57.00
2022-10-28T12:57:00.683Z,56.50
2022-10-28T13:02:05.633Z,56.10
2022-10-28T13:07:43.435Z,54.40
2022-10-28T13:13:13.409Z,53.50
2022-10-28T13:18:59.327Z,54.00
2022-10-28T13:24:28.838Z,54.70
2022-10-28T13:29:52.926Z,54.80
2022-10-28T13:35:17.296Z,55.00
2022-10-28T13:41:03.768Z,54.70
2022-10-28T13:46:07.244Z,54.10
2022-10-28T13:51:32.115Z,53.70
2022-10-28T13:56:56.694Z,53.40
2022-10-28T14:02:39.690Z,52.30
2022-10-28T14:07:55.073Z,51.30
2022-10-28T14:13:02.371Z,51.50
2022-10-28T14:18:15.809Z,51.30
2022-10-28T14:23:51.989Z,51.50
2022-10-28T14:29:29.922Z,51.70
2022-10-28T14:34:44.794Z,52.00
2022-10-28T14:40:02.536Z,51.50
2022-10-28T14:45:35.717Z,51.10
2022-10-28T14:50:42.133Z,51.40
2022-10-28T14:56:07.820Z,51.80
2022-10-28T15:01:24.127Z,52.00
2022-10-28T15:06:39.375Z,52.10
2022-10-28T15:11:45.189Z,53.30
2022-10-28T15:16:50.658Z,52.40
2022-10-28T15:22:05.912Z,52.80
2022-10-28T15:27:30.748Z,52.80
2022-10-28T15:32:36.400Z,52.90
2022-10-28T15:37:39.920Z,52.80
2022-10-28T15:42:50.477Z,52.60
2022-10-28T15:47:57.119Z,52.90
2022-10-28T15:53:41.206Z,53.00
2022-10-28T15:58:46.026Z,53.10
2022-10-28T16:03:50.656Z,53.30
2022-10-28T16:09:02.797Z,53.50
2022-10-28T16:14:36.788Z,53.60
2022-10-28T16:19:44.931Z,53.90
2022-10-28T16:24:54.850Z,54.20
2022-10-28T16:29:59.276Z,54.60
2022-10-28T16:35:05.012Z,54.80
2022-10-28T16:40:24.890Z,55.00
2022-10-28T16:45:51.679Z,55.20
2022-10-28T16:50:58.761Z,55.50
2022-10-28T16:56:02.829Z,55.80
2022-10-28T17:01:06.860Z,55.90
2022-10-28T17:06:11.767Z,56.10
2022-10-28T17:11:34.971Z,56.20
2022-10-28T17:16:56.511Z,56.50
2022-10-28T17:22:02.048Z,56.40
2022-10-28T17:27:26.118Z,56.50
2022-10-28T17:32:29.869Z,56.80
2022-10-28T17:37:35.049Z,56.90
2022-10-28T17:42:39.033Z,57.00
2022-10-28T17:47:42.376Z,57.20
2022-10-28T17:52:47.037Z,57.50
2022-10-28T17:57:50.325Z,57.60
2022-10-28T18:02:57.294Z,57.70
2022-10-28T18:08:02.003Z,58.00
2022-10-28T18:13:05.376Z,58.10
2022-10-28T18:18:28.186Z,58.20
2022-10-28T18:23:32.931Z,58.30
2022-10-28T18:28:37.922Z,58.40
2022-10-28T18:33:42.043Z,58.30
2022-10-28T18:38:46.746Z,58.50
2022-10-28T18:44:11.186Z,58.60
2022-10-28T18:49:14.424Z,58.50
2022-10-28T18:54:19.147Z,58.40
2022-10-28T19:00:05.058Z,58.60
2022-10-28T19:05:03.660Z,58.50
2022-10-28T19:10:08.936Z,58.60
2022-10-28T19:15:12.324Z,58.70
2022-10-28T19:20:15.865Z,59.00
2022-10-28T19:25:20.560Z,59.10
2022-10-28T19:30:23.838Z,59.10
2022-10-28T19:35:27.467Z,59.10
2022-10-28T19:40:32.399Z,59.10
2022-10-28T19:45:35.671Z,59.30
2022-10-28T19:50:38.990Z,59.50
2022-10-28T19:55:43.660Z,59.80
2022-10-28T20:00:46.969Z,60.10
2022-10-28T20:05:50.287Z,60.10
2022-10-28T20:10:59.931Z,60.20
2022-10-28T20:16:05.556Z,60.30
2022-10-28T20:21:30.075Z,60.30
2022-10-28T20:26:36.837Z,60.40
2022-10-28T20:31:40.165Z,60.50
2022-10-28T20:36:45.029Z,60.50
2022-10-28T20:41:51.152Z,60.70
2022-10-28T20:46:55.421Z,60.90
2022-10-28T20:51:58.803Z,60.80
2022-10-28T20:57:21.608Z,60.90
2022-10-28T21:02:25.382Z,61.00
2022-10-28T21:07:28.794Z,61.20
2022-10-28T21:12:33.704Z,61.20
2022-10-28T21:17:55.535Z,61.20
2022-10-28T21:23:00.708Z,61.30
2022-10-28T21:28:05.745Z,61.40
2022-10-28T21:33:27.280Z,61.40
2022-10-28T21:38:31.509Z,61.80
2022-10-28T21:43:55.023Z,61.80
2022-10-28T21:48:58.403Z,61.90
2022-10-28T21:54:02.204Z,61.90
2022-10-28T21:59:07.034Z,62.00
2022-10-28T22:04:10.396Z,62.20
2022-10-28T22:09:34.925Z,62.50
2022-10-28T22:14:42.053Z,62.80
2022-10-28T22:19:45.710Z,62.80
2022-10-28T22:24:49.408Z,62.70
2022-10-28T22:29:54.378Z,62.70
2022-10-28T22:34:57.668Z,62.80
2022-10-28T22:40:00.975Z,62.90
2022-10-28T22:45:23.892Z,62.90
2022-10-28T22:50:27.238Z,63.00
2022-10-28T22:55:30.521Z,63.00
2022-10-28T23:00:35.189Z,63.10
2022-10-28T23:05:56.830Z,63.20
2022-10-28T23:11:01.174Z,63.10
2022-10-28T23:16:07.712Z,63.10
2022-10-28T23:21:12.846Z,63.00
2022-10-28T23:26:16.960Z,63.10
2022-10-28T23:31:40.102Z,63.20
2022-10-28T23:36:43.402Z,63.40
2022-10-28T23:42:05.256Z,63.40
2022-10-28T23:47:28.043Z,63.60
2022-10-28T23:52:31.378Z,63.80
2022-10-28T23:57:34.654Z,64.00
